Time;durP1;ratioP1;P1;durP2;ratioP2;P2;SDS_P1;SDS_P2;PMS_P1;PMS_P2;Temp;Humidity;BMP_temperature;BMP_pressure;BME280_temperature;BME280_humidity;BME280_pressure;Samples;Min_cycle;Max_cycle;Signal;HPM_P1;HPM_P2
2022/08/03 00:01:30;;;;;;;9.30;1.95;;;24.70;81.20;;;;;;5112724;28;20028;-63
2022/08/03 00:03:55;;;;;;;6.72;1.90;;;24.70;81.40;;;;;;5112092;28;20047;-63
2022/08/03 00:06:21;;;;;;;6.45;2.08;;;24.70;82.20;;;;;;5113098;28;20105;-63
2022/08/03 00:08:47;;;;;;;9.77;1.90;;;24.70;81.70;;;;;;5109812;28;20038;-63
2022/08/03 00:11:13;;;;;;;7.88;1.90;;;24.60;81.60;;;;;;5106028;28;20140;-63
2022/08/03 00:13:38;;;;;;;16.27;2.20;;;24.60;81.50;;;;;;5093736;28;20039;-63
2022/08/03 00:16:04;;;;;;;5.03;2.08;;;24.60;81.70;;;;;;5101868;28;20024;-63
2022/08/03 00:18:30;;;;;;;6.03;2.67;;;24.60;82.10;;;;;;5099747;28;20378;-63
2022/08/03 00:20:55;;;;;;;11.30;1.60;;;24.50;81.90;;;;;;5107202;28;20040;-63
2022/08/03 00:23:21;;;;;;;8.63;2.10;;;24.50;81.70;;;;;;5100260;28;20032;-63
2022/08/03 00:25:47;;;;;;;11.88;2.85;;;24.50;81.70;;;;;;5102150;28;20063;-63
2022/08/03 00:28:12;;;;;;;8.85;2.05;;;24.40;81.70;;;;;;5101640;28;20027;-63
2022/08/03 00:30:38;;;;;;;4.82;2.17;;;24.40;81.80;;;;;;5111225;28;20105;-63
2022/08/03 00:33:04;;;;;;;9.35;2.35;;;24.50;82.10;;;;;;5103736;28;20044;-63
2022/08/03 00:35:30;;;;;;;6.07;2.08;;;24.40;82.00;;;;;;5092850;28;20028;-64
2022/08/03 00:37:58;;;;;;;11.68;2.00;;;24.40;82.00;;;;;;5110619;28;20497;-63
2022/08/03 00:40:24;;;;;;;5.95;1.65;;;24.30;81.80;;;;;;5112081;28;20399;-62
2022/08/03 00:42:57;;;;;;;15.98;2.28;;;24.30;82.30;;;;;;5111281;28;20019;-63
2022/08/03 00:45:33;;;;;;;7.20;2.13;;;24.30;81.80;;;;;;5110473;28;20080;-62
2022/08/03 00:48:00;;;;;;;5.43;1.77;;;24.30;81.70;;;;;;5109914;28;20036;-63
2022/08/03 00:50:28;;;;;;;13.13;2.25;;;24.30;81.60;;;;;;5109738;28;20027;-62
2022/08/03 00:52:57;;;;;;;7.40;1.83;;;24.20;81.80;;;;;;5111286;28;20035;-63
2022/08/03 00:55:23;;;;;;;6.55;2.10;;;24.20;81.90;;;;;;5112724;28;20036;-63
2022/08/03 00:57:50;;;;;;;7.60;1.70;;;24.20;81.80;;;;;;5108149;28;20034;-63
2022/08/03 01:00:18;;;;;;;7.78;1.35;;;24.20;82.60;;;;;;5094447;28;20023;-63
2022/08/03 01:02:44;;;;;;;8.57;1.85;;;24.20;82.10;;;;;;5093166;28;20032;-63
2022/08/03 01:05:10;;;;;;;9.00;2.00;;;24.10;82.20;;;;;;5100990;28;20032;-63
2022/08/03 01:07:57;;;;;;;8.65;2.75;;;24.10;82.20;;;;;;5102164;28;20020;-63
2022/08/03 01:10:38;;;;;;;9.15;2.00;;;24.10;82.10;;;;;;5111356;28;20042;-63
2022/08/03 01:13:12;;;;;;;5.85;1.85;;;24.00;82.10;;;;;;5096149;28;20185;-63
2022/08/03 01:15:45;;;;;;;8.02;1.98;;;24.00;82.40;;;;;;5093266;28;20035;-63
2022/08/03 01:18:24;;;;;;;11.98;2.35;;;24.00;82.50;;;;;;5105211;28;20467;-63
2022/08/03 01:20:55;;;;;;;8.35;1.85;;;24.00;82.60;;;;;;5111543;28;20039;-63
2022/08/03 01:23:33;;;;;;;8.73;2.30;;;24.00;82.50;;;;;;5094875;28;20502;-63
2022/08/03 01:26:11;;;;;;;16.58;1.67;;;23.90;82.90;;;;;;5091367;28;20025;-63
2022/08/03 01:29:04;;;;;;;7.90;2.72;;;24.00;82.90;;;;;;5099217;28;20538;-63
2022/08/03 01:31:52;;;;;;;12.27;2.33;;;23.90;82.90;;;;;;5095512;28;20130;-63
2022/08/03 01:34:19;;;;;;;10.70;1.70;;;23.90;82.70;;;;;;5098963;28;20494;-63
2022/08/03 01:36:56;;;;;;;7.00;2.13;;;23.90;82.80;;;;;;5111716;28;20474;-63
2022/08/03 01:39:24;;;;;;;7.72;2.20;;;23.80;83.40;;;;;;5112500;28;20028;-63
2022/08/03 01:41:58;;;;;;;7.75;2.03;;;23.80;83.70;;;;;;5110433;28;20133;-63
2022/08/03 01:44:34;;;;;;;10.25;2.63;;;23.80;84.00;;;;;;5098030;28;20422;-63
2022/08/03 01:47:01;;;;;;;9.00;2.30;;;23.80;84.20;;;;;;5099479;28;20073;-63
2022/08/03 01:49:29;;;;;;;11.50;1.90;;;23.80;84.10;;;;;;5097510;28;20028;-63
2022/08/03 01:51:56;;;;;;;12.13;3.08;;;23.80;83.90;;;;;;5103331;28;20044;-63
2022/08/03 01:54:24;;;;;;;6.60;1.75;;;23.80;83.50;;;;;;5103963;28;20059;-63
2022/08/03 01:56:53;;;;;;;9.30;2.55;;;23.70;83.60;;;;;;5110772;28;20156;-63
2022/08/03 01:59:20;;;;;;;18.25;2.35;;;23.70;83.70;;;;;;5097068;28;20826;-63
2022/08/03 02:01:48;;;;;;;10.15;1.92;;;23.70;83.50;;;;;;5112456;28;20111;-63
2022/08/03 02:04:17;;;;;;;12.18;2.38;;;23.70;83.50;;;;;;5112063;28;20130;-63
2022/08/03 02:06:45;;;;;;;8.90;1.95;;;23.70;83.80;;;;;;5100978;28;20060;-63
2022/08/03 02:09:13;;;;;;;5.75;1.77;;;23.60;83.70;;;;;;5107565;28;20394;-63
2022/08/03 02:11:39;;;;;;;6.70;2.05;;;23.70;84.10;;;;;;5107311;28;20040;-63
2022/08/03 02:14:06;;;;;;;11.07;1.80;;;23.60;84.00;;;;;;5095718;28;20111;-63
2022/08/03 02:16:33;;;;;;;12.05;2.35;;;23.60;83.50;;;;;;5101376;28;20157;-63
2022/08/03 02:19:05;;;;;;;10.10;1.67;;;23.60;83.30;;;;;;5102848;28;20058;-63
2022/08/03 02:21:35;;;;;;;7.30;1.92;;;23.50;83.40;;;;;;5102886;28;20091;-63
2022/08/03 02:24:01;;;;;;;7.50;1.63;;;23.50;83.70;;;;;;5094731;27;20035;-63
2022/08/03 02:26:29;;;;;;;9.15;2.13;;;23.50;83.60;;;;;;5102557;28;20466;-63
2022/08/03 02:28:58;;;;;;;7.88;3.13;;;23.50;84.10;;;;;;5094951;28;20036;-63
2022/08/03 02:31:31;;;;;;;12.48;2.17;;;23.40;84.10;;;;;;5108417;28;20048;-63
2022/08/03 02:34:02;;;;;;;8.43;1.50;;;23.40;84.60;;;;;;5114119;28;20088;-62
2022/08/03 02:36:30;;;;;;;9.30;1.98;;;23.50;84.40;;;;;;5104542;28;20032;-63
2022/08/03 02:38:59;;;;;;;9.65;1.80;;;23.40;84.50;;;;;;5105255;28;20496;-63
2022/08/03 02:41:47;;;;;;;7.18;1.98;;;23.40;84.60;;;;;;5107400;28;20106;-63
2022/08/03 02:44:17;;;;;;;13.35;2.67;;;23.40;84.10;;;;;;5094706;28;20036;-63
2022/08/03 02:46:45;;;;;;;5.38;1.77;;;23.40;84.10;;;;;;5114519;28;20187;-63
2022/08/03 02:49:13;;;;;;;7.88;2.13;;;23.30;84.00;;;;;;5101916;28;20028;-63
2022/08/03 02:51:40;;;;;;;7.40;1.65;;;23.30;84.00;;;;;;5106782;28;20036;-63
2022/08/03 02:54:08;;;;;;;7.38;1.73;;;23.30;83.60;;;;;;5097607;28;20338;-63
2022/08/03 02:56:35;;;;;;;8.68;1.95;;;23.20;83.30;;;;;;5103793;28;20140;-63
2022/08/03 02:59:01;;;;;;;9.65;2.05;;;23.20;83.30;;;;;;5097632;28;20102;-63
2022/08/03 03:01:29;;;;;;;9.77;2.03;;;23.20;83.60;;;;;;5113961;28;20039;-63
2022/08/03 03:03:56;;;;;;;8.20;2.67;;;23.20;83.60;;;;;;5113144;28;20038;-63
2022/08/03 03:06:24;;;;;;;6.45;2.20;;;23.10;83.60;;;;;;5103094;28;20046;-62
2022/08/03 03:08:51;;;;;;;6.38;1.80;;;23.10;83.90;;;;;;5094394;28;20115;-63
2022/08/03 03:11:19;;;;;;;7.88;1.60;;;23.10;84.00;;;;;;5109152;28;20085;-62
2022/08/03 03:13:47;;;;;;;7.85;1.65;;;23.10;84.10;;;;;;5113438;28;20047;-63
2022/08/03 03:16:14;;;;;;;6.70;1.75;;;23.00;84.30;;;;;;5109024;28;20020;-62
2022/08/03 03:18:42;;;;;;;6.97;1.90;;;23.10;84.60;;;;;;5093518;28;20040;-63
2022/08/03 03:21:08;;;;;;;7.13;1.95;;;23.10;84.70;;;;;;5110986;28;20059;-63
2022/08/03 03:23:37;;;;;;;6.78;1.70;;;23.00;84.70;;;;;;5101364;28;20071;-63
2022/08/03 03:26:03;;;;;;;7.80;1.60;;;23.10;84.30;;;;;;5105559;28;20116;-63
2022/08/03 03:28:30;;;;;;;13.07;2.72;;;23.00;83.80;;;;;;5099392;28;20040;-63
2022/08/03 03:30:56;;;;;;;7.22;1.70;;;23.00;84.10;;;;;;5100946;28;20048;-63
2022/08/03 03:33:22;;;;;;;7.68;1.95;;;23.00;84.10;;;;;;5092463;28;20402;-62
2022/08/03 03:35:48;;;;;;;9.32;1.77;;;23.00;84.50;;;;;;5106363;28;20027;-63
2022/08/03 03:38:14;;;;;;;10.13;1.77;;;22.90;84.40;;;;;;5110734;28;20110;-63
2022/08/03 03:40:40;;;;;;;5.00;1.50;;;22.90;84.20;;;;;;5112319;28;20111;-63
2022/08/03 03:43:07;;;;;;;6.07;1.50;;;22.90;84.20;;;;;;5099769;28;20390;-63
2022/08/03 03:45:34;;;;;;;8.15;2.30;;;22.90;84.00;;;;;;5100915;28;20051;-63
2022/08/03 03:48:04;;;;;;;10.00;2.10;;;22.90;84.00;;;;;;5105483;28;20031;-63
2022/08/03 03:50:31;;;;;;;10.20;1.88;;;22.90;84.20;;;;;;5106763;28;20104;-62
2022/08/03 03:52:57;;;;;;;7.10;1.85;;;22.80;83.90;;;;;;5106453;28;20048;-63
2022/08/03 03:55:23;;;;;;;8.15;2.08;;;22.80;84.00;;;;;;5103275;28;20031;-62
2022/08/03 03:57:49;;;;;;;9.85;1.90;;;22.80;84.10;;;;;;5110706;28;20493;-62
2022/08/03 04:00:19;;;;;;;11.35;1.83;;;22.70;83.90;;;;;;5112611;28;20141;-63
2022/08/03 04:02:45;;;;;;;7.20;1.40;;;22.70;84.20;;;;;;5099804;28;20031;-63
2022/08/03 04:11:18;;;;;;;6.03;1.60;;;22.70;83.70;;;;;;5112441;28;20080;-63
2022/08/03 04:13:54;;;;;;;9.75;1.52;;;22.60;83.60;;;;;;5111620;28;20462;-63
2022/08/03 04:16:23;;;;;;;7.10;1.58;;;22.60;83.50;;;;;;5108951;28;20096;-63
2022/08/03 04:18:59;;;;;;;6.45;1.80;;;22.60;83.70;;;;;;5112295;28;20035;-63
2022/08/03 04:21:27;;;;;;;10.85;2.30;;;22.50;83.60;;;;;;5112160;28;20055;-63
2022/08/03 04:23:57;;;;;;;6.03;1.80;;;22.50;84.40;;;;;;5111710;28;20042;-63
2022/08/03 04:26:26;;;;;;;6.40;1.63;;;22.50;84.00;;;;;;5106944;28;20459;-63
2022/08/03 04:28:53;;;;;;;7.68;1.90;;;22.50;83.80;;;;;;5110938;28;20511;-63
2022/08/03 04:31:22;;;;;;;5.85;1.70;;;22.50;83.60;;;;;;5109162;28;20052;-63
2022/08/03 04:33:49;;;;;;;11.43;2.15;;;22.50;83.80;;;;;;5111169;28;20063;-63
2022/08/03 04:36:18;;;;;;;8.88;1.90;;;22.40;83.90;;;;;;5101423;28;20036;-63
2022/08/03 04:39:06;;;;;;;4.05;1.40;;;22.50;84.10;;;;;;5107941;28;20032;-63
2022/08/03 04:41:34;;;;;;;5.32;2.10;;;22.50;84.00;;;;;;5106457;28;20035;-63
2022/08/03 04:44:00;;;;;;;7.60;1.95;;;22.40;84.00;;;;;;5109450;28;20536;-63
2022/08/03 04:46:33;;;;;;;8.75;1.85;;;22.40;84.10;;;;;;5101519;28;20035;-63
2022/08/03 04:49:00;;;;;;;8.33;2.47;;;22.40;84.70;;;;;;5107492;28;20031;-62
2022/08/03 04:51:26;;;;;;;5.78;1.95;;;22.40;84.50;;;;;;5109623;28;20036;-63
2022/08/03 04:53:52;;;;;;;14.55;2.67;;;22.40;84.40;;;;;;5108654;28;20038;-63
2022/08/03 04:56:18;;;;;;;6.65;1.75;;;22.40;84.40;;;;;;5110195;28;20456;-63
2022/08/03 04:58:44;;;;;;;7.03;1.73;;;22.40;85.00;;;;;;5109173;28;20027;-64
2022/08/03 05:01:09;;;;;;;7.85;1.88;;;22.40;84.40;;;;;;5109878;28;20028;-64
2022/08/03 05:03:35;;;;;;;1.13;0.98;;;22.40;84.20;;;;;;5106890;28;20019;-64
2022/08/03 05:06:01;;;;;;;3.80;1.35;;;22.40;83.60;;;;;;5107435;28;20035;-64
2022/08/03 05:08:28;;;;;;;5.03;1.55;;;22.40;84.20;;;;;;5109788;28;20024;-63
2022/08/03 05:10:54;;;;;;;3.17;1.20;;;22.30;84.20;;;;;;5106230;28;20016;-64
2022/08/03 05:13:20;;;;;;;9.38;2.25;;;22.30;84.90;;;;;;5108951;28;20043;-63
2022/08/03 05:15:45;;;;;;;5.20;1.58;;;22.30;85.70;;;;;;5108810;28;20023;-63
2022/08/03 05:18:11;;;;;;;11.85;2.47;;;22.30;85.60;;;;;;5108642;28;20028;-64
2022/08/03 05:20:37;;;;;;;5.88;1.95;;;22.30;86.10;;;;;;5108817;28;20026;-63
2022/08/03 05:23:03;;;;;;;11.15;1.55;;;22.30;86.00;;;;;;5109648;28;20387;-63
2022/08/03 05:25:29;;;;;;;4.32;1.27;;;22.30;85.70;;;;;;5105447;28;20497;-63
2022/08/03 05:27:55;;;;;;;7.47;1.65;;;22.30;85.70;;;;;;5107958;28;20036;-63
2022/08/03 05:30:21;;;;;;;5.78;1.42;;;22.30;86.10;;;;;;5107453;28;20059;-64
2022/08/03 05:32:46;;;;;;;6.38;1.67;;;22.30;85.70;;;;;;5106717;28;20110;-63
2022/08/03 05:35:12;;;;;;;8.35;1.58;;;22.30;86.90;;;;;;5109107;28;20024;-63
2022/08/03 05:37:38;;;;;;;9.88;1.73;;;22.30;86.70;;;;;;5111665;28;20363;-62
2022/08/03 05:40:04;;;;;;;7.68;2.15;;;22.30;86.30;;;;;;5111548;28;20027;-63
2022/08/03 05:42:30;;;;;;;7.80;2.00;;;22.30;86.70;;;;;;5110848;28;20055;-63
2022/08/03 05:44:56;;;;;;;7.05;2.20;;;22.30;87.00;;;;;;5110328;28;20058;-62
2022/08/03 05:47:21;;;;;;;3.25;1.70;;;22.30;87.50;;;;;;5111901;28;20043;-62
2022/08/03 05:49:47;;;;;;;4.97;1.25;;;22.30;87.60;;;;;;5113699;28;20035;-62
2022/08/03 05:52:13;;;;;;;10.38;1.73;;;22.30;87.70;;;;;;5112225;28;20067;-62
2022/08/03 05:54:39;;;;;;;5.35;1.40;;;22.30;88.10;;;;;;5112627;28;20027;-62
2022/08/03 05:57:04;;;;;;;7.22;2.10;;;22.30;87.80;;;;;;5113095;28;20036;-63
2022/08/03 05:59:30;;;;;;;12.48;2.85;;;22.30;88.10;;;;;;5112285;28;20110;-63
2022/08/03 06:01:56;;;;;;;5.57;0.93;;;22.30;87.80;;;;;;5112106;28;20114;-63
2022/08/03 06:04:21;;;;;;;7.70;2.40;;;22.30;87.30;;;;;;5113491;28;20036;-63
2022/08/03 06:06:49;;;;;;;6.90;1.77;;;22.30;88.50;;;;;;5109509;28;20025;-62
2022/08/03 06:09:16;;;;;;;18.23;1.80;;;22.30;88.50;;;;;;5109497;28;20144;-62
2022/08/03 06:11:42;;;;;;;2.92;1.80;;;22.40;88.80;;;;;;5112646;28;21043;-62
2022/08/03 06:14:07;;;;;;;8.15;3.00;;;22.40;89.10;;;;;;5112139;28;20493;-63
2022/08/03 06:16:34;;;;;;;4.95;1.58;;;22.40;89.80;;;;;;5113092;28;20475;-62
2022/08/03 06:19:00;;;;;;;19.90;2.72;;;22.40;89.70;;;;;;5113789;28;20020;-62
2022/08/03 06:21:25;;;;;;;6.38;2.05;;;22.40;89.70;;;;;;5111688;28;20244;-63
2022/08/03 06:23:51;;;;;;;10.38;1.60;;;22.40;89.50;;;;;;5113138;28;20020;-63
2022/08/03 06:26:17;;;;;;;6.10;1.80;;;22.50;90.00;;;;;;5110880;28;20494;-63
2022/08/03 06:28:44;;;;;;;7.15;1.75;;;22.50;89.60;;;;;;5109662;28;20055;-63
2022/08/03 06:31:10;;;;;;;7.03;1.08;;;22.50;90.10;;;;;;5112419;28;20050;-62
2022/08/03 06:33:36;;;;;;;7.05;1.42;;;22.50;89.80;;;;;;5112970;28;20035;-63
2022/08/03 06:36:02;;;;;;;8.02;1.80;;;22.50;90.00;;;;;;5111210;28;20383;-63
2022/08/03 06:38:28;;;;;;;4.75;1.55;;;22.60;90.40;;;;;;5114179;28;20023;-62
2022/08/03 06:40:53;;;;;;;8.30;1.70;;;22.60;90.40;;;;;;5113655;28;20428;-63
2022/08/03 06:43:19;;;;;;;7.28;1.50;;;22.60;90.30;;;;;;5110589;28;20504;-63
2022/08/03 06:45:45;;;;;;;8.57;1.83;;;22.60;90.00;;;;;;5113353;28;20023;-62
2022/08/03 06:48:12;;;;;;;1.20;0.68;;;22.70;90.40;;;;;;5109720;28;20502;-63
2022/08/03 06:50:40;;;;;;;2.08;0.93;;;22.70;90.20;;;;;;5111382;28;20111;-63
2022/08/03 06:53:07;;;;;;;11.15;2.50;;;22.70;90.30;;;;;;5107238;28;20031;-63
2022/08/03 06:55:32;;;;;;;5.90;1.45;;;22.70;90.70;;;;;;5112211;28;20034;-62
2022/08/03 06:57:58;;;;;;;8.88;2.10;;;22.70;90.60;;;;;;5111837;28;20032;-63
2022/08/03 07:00:25;;;;;;;7.43;2.03;;;22.80;90.70;;;;;;5108973;28;20028;-62
2022/08/03 07:02:51;;;;;;;9.85;1.52;;;22.80;90.80;;;;;;5112555;28;20102;-63
2022/08/03 07:05:16;;;;;;;7.38;2.13;;;22.80;90.60;;;;;;5107542;28;20131;-62
2022/08/03 07:07:42;;;;;;;11.27;2.33;;;22.80;90.80;;;;;;5110945;28;20028;-63
2022/08/03 07:10:10;;;;;;;4.43;1.77;;;22.90;90.70;;;;;;5111948;28;20399;-62
2022/08/03 07:12:37;;;;;;;8.95;2.45;;;22.90;90.70;;;;;;5111376;28;20036;-63
2022/08/03 07:15:04;;;;;;;5.35;1.73;;;22.90;91.00;;;;;;5112175;28;20107;-64
2022/08/03 07:17:32;;;;;;;3.60;1.35;;;22.90;90.90;;;;;;5110683;28;20035;-63
2022/08/03 07:19:58;;;;;;;1.70;0.98;;;23.00;90.80;;;;;;5111818;28;20470;-63
2022/08/03 07:22:24;;;;;;;6.05;2.03;;;23.00;90.70;;;;;;5103844;28;20093;-63
2022/08/03 07:24:50;;;;;;;3.42;1.50;;;23.00;91.00;;;;;;5106673;28;20475;-63
2022/08/03 07:27:16;;;;;;;9.20;2.10;;;23.10;91.00;;;;;;5105221;28;20028;-64
2022/08/03 07:29:41;;;;;;;16.25;2.25;;;23.10;91.40;;;;;;5108490;28;20049;-63
2022/08/03 07:32:07;;;;;;;5.13;1.63;;;23.10;91.10;;;;;;5112533;28;20545;-63
2022/08/03 07:34:33;;;;;;;7.75;2.22;;;23.20;91.00;;;;;;5112265;28;20077;-69
2022/08/03 07:36:59;;;;;;;11.65;2.10;;;23.20;91.10;;;;;;5110462;28;20028;-64
2022/08/03 07:39:24;;;;;;;11.90;2.47;;;23.30;91.10;;;;;;5107538;28;20035;-63
2022/08/03 07:41:50;;;;;;;8.45;2.20;;;23.30;91.00;;;;;;5110876;28;20019;-66
2022/08/03 07:44:19;;;;;;;7.15;2.17;;;23.30;91.10;;;;;;5108860;28;20023;-63
2022/08/03 07:46:45;;;;;;;5.93;1.83;;;23.40;90.80;;;;;;5107784;28;20390;-62
2022/08/03 07:49:11;;;;;;;5.57;2.10;;;23.40;90.80;;;;;;5108351;28;20020;-62
2022/08/03 07:51:37;;;;;;;6.93;1.95;;;23.50;90.80;;;;;;5109823;28;20024;-63
2022/08/03 07:54:03;;;;;;;8.05;1.83;;;23.50;90.90;;;;;;5106934;28;20555;-63
2022/08/03 07:56:29;;;;;;;1.90;0.82;;;23.60;90.60;;;;;;5109175;28;20024;-63
2022/08/03 07:58:55;;;;;;;14.00;2.55;;;23.60;90.30;;;;;;5108768;28;20040;-63
2022/08/03 08:01:21;;;;;;;6.57;2.65;;;23.70;90.70;;;;;;5109324;28;20394;-63
2022/08/03 08:03:48;;;;;;;11.45;2.33;;;23.70;90.10;;;;;;5104791;27;20108;-64
2022/08/03 08:06:14;;;;;;;5.53;1.95;;;23.80;90.70;;;;;;5107544;28;20031;-63
2022/08/03 08:08:40;;;;;;;12.15;2.72;;;23.70;90.60;;;;;;5106688;28;20758;-61
2022/08/03 08:11:06;;;;;;;10.82;3.00;;;23.80;90.60;;;;;;5108358;28;20428;-61
2022/08/03 08:13:32;;;;;;;13.68;3.13;;;23.80;90.80;;;;;;5108466;28;20043;-61
2022/08/03 08:15:57;;;;;;;7.45;2.35;;;23.90;91.00;;;;;;5105148;28;20133;-61
2022/08/03 08:18:23;;;;;;;5.97;1.23;;;23.90;91.00;;;;;;5108116;28;20043;-61
2022/08/03 08:20:49;;;;;;;9.32;1.98;;;23.90;90.50;;;;;;5107544;28;20156;-62
2022/08/03 08:23:21;;;;;;;6.63;2.15;;;23.90;91.30;;;;;;5107514;28;20031;-61
2022/08/03 08:25:48;;;;;;;2.83;1.23;;;23.90;91.10;;;;;;5108452;28;20027;-61
2022/08/03 08:28:16;;;;;;;13.40;2.20;;;23.90;90.70;;;;;;5105663;28;20097;-61
2022/08/03 08:30:42;;;;;;;5.70;2.08;;;24.00;91.10;;;;;;5108893;28;20131;-61
2022/08/03 08:33:08;;;;;;;4.88;1.55;;;24.00;91.00;;;;;;5109247;28;20118;-61
2022/08/03 08:35:33;;;;;;;2.67;1.52;;;24.00;91.00;;;;;;5108476;28;21429;-61
2022/08/03 08:38:00;;;;;;;7.57;2.00;;;24.00;90.90;;;;;;5109338;28;20024;-61
2022/08/03 08:40:26;;;;;;;7.75;2.08;;;24.00;91.30;;;;;;5109568;28;20031;-61
2022/08/03 08:42:52;;;;;;;12.45;2.35;;;24.00;91.20;;;;;;5105851;27;20063;-62
2022/08/03 08:45:18;;;;;;;8.02;1.92;;;24.10;91.30;;;;;;5108799;28;20820;-61
2022/08/03 08:47:48;;;;;;;10.60;2.40;;;24.10;91.30;;;;;;5105323;28;20546;-61
2022/08/03 08:50:18;;;;;;;9.02;3.28;;;24.20;91.60;;;;;;5107979;28;20027;-61
2022/08/03 08:52:46;;;;;;;3.05;0.50;;;24.20;91.60;;;;;;5108518;28;20126;-62
2022/08/03 08:55:15;;;;;;;11.40;2.38;;;24.20;91.30;;;;;;5106591;28;20028;-61
2022/08/03 08:57:47;;;;;;;9.43;2.50;;;24.30;91.60;;;;;;5110006;28;20356;-62
2022/08/03 09:00:13;;;;;;;7.20;2.22;;;24.20;91.40;;;;;;5110184;28;20032;-62
2022/08/03 09:02:41;;;;;;;5.82;2.40;;;24.30;91.40;;;;;;5109774;28;20024;-62
2022/08/03 09:05:11;;;;;;;14.07;2.70;;;24.30;91.30;;;;;;5107607;28;20491;-61
2022/08/03 09:07:38;;;;;;;5.28;1.50;;;24.40;91.60;;;;;;5099293;28;20028;-61
2022/08/03 09:10:05;;;;;;;2.72;1.15;;;24.40;91.30;;;;;;5104229;28;20063;-61
2022/08/03 09:12:43;;;;;;;8.00;1.90;;;24.40;91.30;;;;;;5098346;28;20042;-63
2022/08/03 09:15:32;;;;;;;8.77;2.38;;;24.50;91.60;;;;;;5108953;28;20058;-62
2022/08/03 09:18:02;;;;;;;16.88;2.47;;;24.50;91.50;;;;;;5113717;28;20032;-63
2022/08/03 09:20:30;;;;;;;9.18;1.83;;;24.50;91.70;;;;;;5103302;28;20486;-62
2022/08/03 09:22:59;;;;;;;2.40;1.40;;;24.50;91.60;;;;;;5102103;28;20046;-62
2022/08/03 09:25:28;;;;;;;11.55;2.35;;;24.50;91.60;;;;;;5114713;28;20081;-62
2022/08/03 09:28:02;;;;;;;7.32;2.15;;;24.60;91.70;;;;;;5110716;28;20038;-62
2022/08/03 09:30:31;;;;;;;6.20;1.65;;;24.60;91.90;;;;;;5114087;28;20138;-61
2022/08/03 09:33:04;;;;;;;3.53;1.48;;;24.60;91.90;;;;;;5107443;28;21238;-62
2022/08/03 09:35:30;;;;;;;9.70;2.22;;;24.70;91.80;;;;;;5110752;28;20396;-62
2022/08/03 09:38:28;;;;;;;11.25;1.98;;;24.70;91.90;;;;;;5109879;28;20118;-61
2022/08/03 09:40:55;;;;;;;7.90;2.45;;;24.70;91.80;;;;;;5063948;28;20036;-61
2022/08/03 09:43:21;;;;;;;8.10;2.70;;;24.70;91.80;;;;;;5111269;28;20043;-61
2022/08/03 09:45:47;;;;;;;6.22;1.83;;;24.80;92.10;;;;;;5109101;27;20217;-61
2022/08/03 09:48:20;;;;;;;10.05;3.03;;;24.90;92.00;;;;;;5111170;28;20118;-61
2022/08/03 09:50:49;;;;;;;;;;;24.90;92.10;;;;;;5108751;28;20028;-62
2022/08/03 09:53:17;;;;;;;9.07;2.22;;;24.90;91.80;;;;;;5108882;28;19923;-61
2022/08/03 09:55:54;;;;;;;3.08;1.58;;;24.90;91.90;;;;;;5110116;28;20027;-62
2022/08/03 09:58:21;;;;;;;8.15;2.65;;;24.90;91.90;;;;;;5111960;28;20039;-62
2022/08/03 10:01:06;;;;;;;9.18;2.08;;;25.00;92.20;;;;;;5113684;28;20032;-62
2022/08/03 10:03:34;;;;;;;9.55;2.10;;;25.10;92.10;;;;;;5097144;28;20028;-62
2022/08/03 10:06:15;;;;;;;9.80;3.00;;;25.10;92.10;;;;;;5113175;28;20084;-62
2022/08/03 10:08:41;;;;;;;10.63;2.92;;;25.20;92.20;;;;;;5101441;28;20123;-62
2022/08/03 10:11:07;;;;;;;11.93;2.30;;;25.20;91.80;;;;;;5104716;28;20064;-62
2022/08/03 10:13:33;;;;;;;8.82;1.83;;;25.30;91.90;;;;;;5107054;28;20341;-62
2022/08/03 10:15:58;;;;;;;10.57;2.58;;;25.40;91.80;;;;;;5114918;28;20031;-62
2022/08/03 10:18:27;;;;;;;2.90;1.33;;;25.40;91.80;;;;;;5107060;27;20028;-62
2022/08/03 10:20:58;;;;;;;14.80;2.13;;;25.40;91.60;;;;;;5113499;28;20027;-62
2022/08/03 10:23:24;;;;;;;7.60;2.08;;;25.50;91.80;;;;;;5100362;28;20024;-62
2022/08/03 10:25:55;;;;;;;7.38;1.63;;;25.60;92.00;;;;;;5110091;28;20486;-62
2022/08/03 10:28:22;;;;;;;8.82;2.17;;;25.60;91.70;;;;;;5110555;28;20031;-63
2022/08/03 10:30:50;;;;;;;1.00;0.75;;;25.60;91.70;;;;;;5113535;28;20097;-62
2022/08/03 10:33:22;;;;;;;6.35;1.77;;;25.70;91.80;;;;;;5106062;28;20050;-62
2022/08/03 10:35:53;;;;;;;9.30;2.55;;;25.70;91.80;;;;;;5112682;28;20032;-62
2022/08/03 10:38:24;;;;;;;15.73;2.85;;;25.70;91.80;;;;;;5108051;28;20130;-62
2022/08/03 10:40:56;;;;;;;9.93;2.30;;;25.70;91.80;;;;;;5108847;28;20024;-63
2022/08/03 10:43:27;;;;;;;10.15;2.17;;;25.80;91.70;;;;;;5111877;28;20111;-62
2022/08/03 10:45:54;;;;;;;14.65;2.83;;;25.80;91.70;;;;;;5105186;28;20771;-64
2022/08/03 10:48:20;;;;;;;8.80;2.15;;;25.90;91.80;;;;;;5107872;28;20059;-62
2022/08/03 10:50:48;;;;;;;7.13;1.25;;;25.90;91.70;;;;;;5110211;28;20032;-63
2022/08/03 10:53:14;;;;;;;10.15;2.50;;;25.90;91.60;;;;;;5105903;28;20027;-62
2022/08/03 10:58:36;;;;;;;4.95;1.70;;;26.00;92.00;;;;;;5103956;28;20447;-62
2022/08/03 11:01:06;;;;;;;12.50;1.73;;;26.10;91.70;;;;;;5111958;28;20103;-63
2022/08/03 11:03:32;;;;;;;5.32;1.90;;;26.10;91.60;;;;;;5110653;28;20043;-63
2022/08/03 11:06:17;;;;;;;9.50;3.45;;;26.20;91.50;;;;;;5109222;28;20024;-63
2022/08/03 11:08:44;;;;;;;8.95;2.05;;;26.20;91.70;;;;;;5111495;28;20027;-63
2022/08/03 11:11:27;;;;;;;3.67;1.35;;;26.30;91.60;;;;;;5107750;28;20459;-63
2022/08/03 11:14:07;;;;;;;3.13;1.60;;;26.30;91.40;;;;;;5109467;28;20530;-63
2022/08/03 11:16:35;;;;;;;12.10;2.65;;;26.30;91.30;;;;;;5111276;28;20020;-63
2022/08/03 11:19:06;;;;;;;3.55;0.98;;;26.40;91.00;;;;;;5111477;27;20032;-63
2022/08/03 11:21:50;;;;;;;12.95;1.88;;;26.50;91.10;;;;;;5112025;28;20077;-62
2022/08/03 11:24:42;;;;;;;10.90;2.38;;;26.50;90.90;;;;;;5105047;28;20027;-62
2022/08/03 11:27:16;;;;;;;8.75;2.53;;;26.50;90.70;;;;;;5108354;28;20027;-62
2022/08/03 11:30:08;;;;;;;5.13;1.58;;;26.60;90.70;;;;;;5107391;28;20084;-62
2022/08/03 11:32:36;;;;;;;8.98;2.28;;;26.70;90.70;;;;;;5109741;28;20039;-62
2022/08/03 11:35:17;;;;;;;13.75;2.85;;;26.70;90.50;;;;;;5110662;28;20024;-62
2022/08/03 11:38:00;;;;;;;6.50;2.60;;;26.80;90.50;;;;;;5108628;28;20058;-63
2022/08/03 11:40:46;;;;;;;10.38;2.47;;;26.80;90.30;;;;;;5108833;28;20032;-62
2022/08/03 11:43:20;;;;;;;10.55;3.25;;;26.90;90.40;;;;;;5110813;28;20024;-62
2022/08/03 11:45:55;;;;;;;10.82;2.42;;;27.00;90.40;;;;;;5109999;28;20024;-62
2022/08/03 11:48:21;;;;;;;1.92;0.98;;;27.00;90.10;;;;;;5110602;28;20031;-62
2022/08/03 11:50:48;;;;;;;3.10;1.52;;;27.00;90.20;;;;;;5108572;28;20036;-62
2022/08/03 11:53:18;;;;;;;5.38;1.67;;;27.10;90.30;;;;;;5108864;28;20482;-62
2022/08/03 11:55:47;;;;;;;16.33;2.83;;;27.10;89.60;;;;;;5110102;28;20477;-62
2022/08/03 11:58:18;;;;;;;3.03;1.10;;;27.10;89.80;;;;;;5108882;28;20146;-62
2022/08/03 12:00:43;;;;;;;6.30;2.88;;;27.20;89.60;;;;;;5107513;28;20032;-62
2022/08/03 12:03:12;;;;;;;11.82;2.97;;;27.20;89.80;;;;;;5110029;28;20026;-62
2022/08/03 12:06:00;;;;;;;16.58;3.35;;;27.20;89.10;;;;;;5109570;28;20544;-62
2022/08/03 12:08:26;;;;;;;9.15;1.92;;;27.30;89.10;;;;;;5106962;28;20036;-62
2022/08/03 12:10:53;;;;;;;7.28;2.17;;;27.40;89.10;;;;;;5109940;28;20065;-62
2022/08/03 12:13:20;;;;;;;12.30;2.53;;;27.40;89.00;;;;;;5106871;28;20047;-63
2022/08/03 12:15:55;;;;;;;4.20;1.85;;;27.40;88.50;;;;;;5104883;28;20122;-63
2022/08/03 12:18:22;;;;;;;15.63;3.58;;;27.50;88.50;;;;;;5111057;28;20031;-62
2022/08/03 12:20:49;;;;;;;8.23;2.58;;;27.50;88.00;;;;;;5108742;28;20024;-62
2022/08/03 12:23:16;;;;;;;15.13;3.30;;;27.60;88.30;;;;;;5102756;28;20063;-62
2022/08/03 12:25:43;;;;;;;5.68;1.90;;;27.70;88.40;;;;;;5105429;28;20027;-62
2022/08/03 12:28:11;;;;;;;13.30;3.42;;;27.80;88.40;;;;;;5091971;28;20036;-62
2022/08/03 12:30:38;;;;;;;4.22;1.38;;;27.80;87.70;;;;;;5101899;28;20499;-63
2022/08/03 12:33:31;;;;;;;13.98;3.08;;;27.80;88.00;;;;;;5111508;28;20168;-63
2022/08/03 12:36:03;;;;;;;;;;;27.90;87.70;;;;;;5107023;28;20044;-63
2022/08/03 12:38:31;;;;;;;15.48;3.35;;;28.00;87.70;;;;;;5112039;28;19994;-63
2022/08/03 12:41:00;;;;;;;13.27;3.97;;;28.00;87.40;;;;;;5108971;28;20042;-63
2022/08/03 12:43:26;;;;;;;10.63;3.22;;;28.00;87.30;;;;;;5111377;28;20386;-63
2022/08/03 12:46:06;;;;;;;6.78;2.95;;;28.10;86.90;;;;;;5108054;28;20040;-63
2022/08/03 12:48:32;;;;;;;19.73;3.63;;;28.10;86.50;;;;;;5100908;28;20487;-63
2022/08/03 12:51:08;;;;;;;11.32;2.15;;;28.20;86.20;;;;;;5109285;28;20032;-63
2022/08/03 12:53:33;;;;;;;10.27;2.08;;;28.20;86.10;;;;;;5111312;28;20043;-63
2022/08/03 12:56:04;;;;;;;15.82;3.08;;;28.30;86.30;;;;;;5109450;28;20034;-63
2022/08/03 12:58:32;;;;;;;12.80;2.70;;;28.40;86.40;;;;;;5108364;28;20557;-63
2022/08/03 13:00:58;;;;;;;16.20;2.80;;;28.40;85.70;;;;;;5111501;28;20036;-64
2022/08/03 13:03:24;;;;;;;4.13;1.50;;;28.40;85.90;;;;;;5108202;28;20036;-63